createdAt,value
2019-06-07T00:01:17.049Z,6.63
2019-06-07T00:03:46.144Z,6.60
2019-06-07T00:06:20.060Z,7.13
2019-06-07T00:08:44.831Z,7.33
2019-06-07T00:11:15.655Z,7.30
2019-06-07T00:13:43.542Z,7.77
2019-06-07T00:16:14.963Z,8.07
2019-06-07T00:18:42.320Z,8.70
2019-06-07T00:21:11.912Z,8.67
2019-06-07T00:23:40.449Z,8.70
2019-06-07T00:26:10.770Z,8.37
2019-06-07T00:28:39.406Z,9.10
2019-06-07T00:31:09.048Z,9.33
2019-06-07T00:33:38.913Z,8.87
2019-06-07T00:36:07.365Z,8.80
2019-06-07T00:38:37.051Z,10.13
2019-06-07T00:41:05.537Z,9.37
2019-06-07T00:43:33.997Z,9.67
2019-06-07T00:46:02.474Z,9.37
2019-06-07T00:48:32.973Z,9.00
2019-06-07T00:51:01.310Z,9.53
2019-06-07T00:53:32.405Z,9.63
2019-06-07T00:56:00.037Z,8.90
2019-06-07T00:58:29.550Z,8.90
2019-06-07T01:00:58.181Z,8.87
2019-06-07T01:03:27.653Z,8.47
2019-06-07T01:05:56.134Z,8.90
2019-06-07T01:08:27.691Z,8.60
2019-06-07T01:10:54.901Z,8.27
2019-06-07T01:13:26.484Z,8.63
2019-06-07T01:15:53.578Z,8.10
2019-06-07T01:18:37.275Z,7.90
2019-06-07T01:20:53.283Z,7.70
2019-06-07T01:23:59.875Z,7.90
2019-06-07T01:25:51.999Z,7.60
2019-06-07T01:28:24.093Z,8.07
2019-06-07T01:30:51.399Z,7.63
2019-06-07T01:33:21.482Z,7.87
2019-06-07T01:35:51.065Z,8.17
2019-06-07T01:38:22.834Z,7.63
2019-06-07T01:40:49.895Z,8.87
2019-06-07T01:43:19.641Z,8.60
2019-06-07T01:45:48.564Z,8.50
2019-06-07T01:48:20.726Z,7.90
2019-06-07T01:50:47.317Z,8.43
2019-06-07T01:53:15.892Z,9.30
2019-06-07T01:55:44.410Z,8.53
2019-06-07T01:58:12.958Z,8.17
2019-06-07T02:00:41.391Z,8.70
2019-06-07T02:03:09.921Z,8.90
2019-06-07T02:05:38.420Z,8.43
2019-06-07T02:08:06.902Z,8.70
2019-06-07T02:10:35.353Z,8.73
2019-06-07T02:13:03.892Z,9.37
2019-06-07T02:15:36.664Z,9.20
2019-06-07T02:18:02.735Z,8.83
2019-06-07T02:20:34.220Z,9.03
2019-06-07T02:23:01.614Z,8.57
2019-06-07T02:25:46.116Z,8.60
2019-06-07T02:28:25.755Z,8.27
2019-06-07T02:30:47.623Z,8.33
2019-06-07T02:33:01.980Z,7.40
2019-06-07T02:35:38.740Z,7.47
2019-06-07T02:38:00.589Z,7.93
2019-06-07T02:40:36.476Z,8.13
2019-06-07T02:42:59.485Z,8.03
2019-06-07T02:45:35.516Z,7.90
2019-06-07T02:47:58.109Z,7.27
2019-06-07T02:50:29.198Z,8.10
2019-06-07T02:52:56.793Z,7.87
2019-06-07T02:55:29.116Z,7.30
2019-06-07T02:57:55.467Z,7.40
2019-06-07T03:00:58.636Z,7.63
2019-06-07T03:03:10.574Z,7.93
2019-06-07T03:05:41.093Z,7.70
2019-06-07T03:08:11.249Z,7.53
2019-06-07T03:10:41.988Z,7.00
2019-06-07T03:13:11.538Z,7.73
2019-06-07T03:15:49.590Z,8.20
2019-06-07T03:18:32.288Z,8.53
2019-06-07T03:21:05.661Z,8.50
2019-06-07T03:23:34.382Z,8.63
2019-06-07T03:26:04.619Z,8.23
2019-06-07T03:28:37.112Z,9.03
2019-06-07T03:31:04.518Z,9.67
2019-06-07T03:33:41.068Z,10.27
2019-06-07T03:36:22.684Z,9.40
2019-06-07T03:38:35.329Z,10.30
2019-06-07T03:41:03.493Z,10.77
2019-06-07T03:43:34.956Z,10.20
2019-06-07T03:46:02.143Z,11.37
2019-06-07T03:48:32.900Z,10.03
2019-06-07T03:51:04.966Z,10.13
2019-06-07T03:53:32.770Z,10.50
2019-06-07T03:56:02.489Z,10.27
2019-06-07T03:58:36.622Z,11.23
2019-06-07T04:01:02.211Z,11.03
2019-06-07T04:03:40.098Z,10.57
2019-06-07T04:06:02.073Z,10.93
2019-06-07T04:08:31.455Z,10.83
2019-06-07T04:11:00.985Z,9.67
2019-06-07T04:13:34.042Z,9.17
2019-06-07T04:15:59.749Z,9.87
2019-06-07T04:18:28.222Z,10.07
2019-06-07T04:20:56.741Z,8.57
2019-06-07T04:23:28.269Z,10.43
2019-06-07T04:25:55.405Z,9.17
2019-06-07T04:29:19.155Z,10.00
2019-06-07T04:30:54.226Z,9.47
2019-06-07T04:33:22.738Z,9.57
2019-06-07T04:35:51.571Z,9.63
2019-06-07T04:38:20.046Z,10.03
2019-06-07T04:40:48.519Z,10.77
2019-06-07T04:43:17.142Z,10.73
2019-06-07T04:45:51.012Z,11.30
2019-06-07T04:48:19.306Z,12.70
2019-06-07T04:50:48.155Z,11.47
2019-06-07T04:53:16.701Z,23.20
2019-06-07T04:55:45.432Z,21.97
2019-06-07T04:58:13.959Z,15.20
2019-06-07T05:01:03.179Z,9.50
2019-06-07T05:03:12.635Z,10.27
2019-06-07T05:05:43.626Z,10.27
2019-06-07T05:08:26.944Z,12.00
2019-06-07T05:10:43.863Z,11.00
2019-06-07T05:13:12.729Z,9.67
2019-06-07T05:15:42.303Z,11.03
2019-06-07T05:18:11.053Z,10.67
2019-06-07T05:20:41.598Z,11.07
2019-06-07T05:23:09.865Z,11.43
2019-06-07T05:25:42.610Z,22.97
2019-06-07T05:28:08.736Z,17.40
2019-06-07T05:31:08.136Z,12.47
2019-06-07T05:33:08.545Z,12.90
2019-06-07T05:35:40.122Z,12.70
2019-06-07T05:38:07.699Z,12.83
2019-06-07T05:40:39.434Z,12.50
2019-06-07T05:43:08.002Z,12.73
2019-06-07T05:45:42.294Z,12.70
2019-06-07T05:48:07.376Z,11.40
2019-06-07T05:50:44.980Z,11.53
2019-06-07T05:53:06.401Z,11.40
2019-06-07T05:55:35.334Z,11.90
2019-06-07T05:58:04.067Z,12.23
2019-06-07T06:00:34.706Z,13.13
2019-06-07T06:03:05.682Z,14.10
2019-06-07T06:05:38.257Z,13.60
2019-06-07T06:08:03.856Z,14.33
2019-06-07T06:10:32.419Z,20.17
2019-06-07T06:13:00.973Z,20.67
2019-06-07T06:15:42.468Z,14.80
2019-06-07T06:17:59.780Z,14.90
2019-06-07T06:20:34.905Z,16.13
2019-06-07T06:22:58.501Z,13.93
2019-06-07T06:25:33.154Z,17.47
2019-06-07T06:28:09.943Z,15.50
2019-06-07T06:30:27.552Z,14.27
2019-06-07T06:32:58.398Z,14.30
2019-06-07T06:35:26.396Z,14.53
2019-06-07T06:37:55.068Z,13.83
2019-06-07T06:40:24.211Z,13.97
2019-06-07T06:42:52.751Z,12.50
2019-06-07T06:45:22.477Z,12.47
2019-06-07T06:47:50.947Z,11.27
2019-06-07T06:50:19.418Z,12.13
2019-06-07T06:52:51.501Z,11.13
2019-06-07T06:55:18.232Z,11.47
2019-06-07T06:57:48.351Z,10.97
2019-06-07T07:00:17.183Z,10.57
2019-06-07T07:03:32.533Z,10.10
2019-06-07T07:05:16.013Z,10.03
2019-06-07T07:07:45.426Z,11.30
2019-06-07T07:10:21.260Z,10.80
2019-06-07T07:12:51.241Z,9.93
2019-06-07T07:15:19.947Z,9.70
2019-06-07T07:18:00.581Z,9.47
2019-06-07T07:20:18.764Z,9.70
2019-06-07T07:22:48.610Z,21.70
2019-06-07T07:25:17.597Z,9.10
2019-06-07T07:27:47.253Z,8.77
2019-06-07T07:30:37.071Z,8.70
2019-06-07T07:32:51.299Z,8.47
2019-06-07T07:35:20.345Z,7.90
2019-06-07T07:37:54.049Z,8.10
2019-06-07T07:40:56.417Z,6.93
2019-06-07T07:42:51.838Z,7.83
2019-06-07T07:45:19.609Z,7.20
2019-06-07T07:48:01.835Z,7.57
2019-06-07T07:50:18.392Z,6.70
2019-06-07T07:52:49.101Z,6.10
2019-06-07T07:55:17.306Z,7.20
2019-06-07T07:57:48.599Z,7.20
2019-06-07T08:00:49.297Z,6.92
2019-06-07T08:02:48.780Z,7.55
2019-06-07T08:05:25.485Z,6.95
2019-06-07T08:07:51.942Z,7.15
2019-06-07T08:10:19.265Z,6.77
2019-06-07T08:13:07.259Z,6.97
2019-06-07T08:15:18.134Z,6.58
2019-06-07T08:17:47.259Z,7.20
2019-06-07T08:20:16.928Z,6.83
2019-06-07T08:22:45.432Z,6.40
2019-06-07T08:25:14.236Z,6.28
2019-06-07T08:27:42.789Z,5.53
2019-06-07T08:30:46.352Z,5.33
2019-06-07T08:32:42.146Z,5.72
2019-06-07T08:35:10.738Z,5.62
2019-06-07T08:38:15.196Z,5.60
2019-06-07T08:40:10.743Z,5.20
2019-06-07T08:42:59.981Z,5.30
2019-06-07T08:45:10.150Z,5.20
2019-06-07T08:47:38.673Z,5.00
2019-06-07T08:50:08.424Z,4.90
2019-06-07T08:52:37.002Z,5.78
2019-06-07T08:55:06.633Z,5.40
2019-06-07T08:57:35.147Z,5.50
2019-06-07T09:00:14.804Z,5.15
2019-06-07T09:02:35.030Z,4.77
2019-06-07T09:05:11.745Z,4.50
2019-06-07T09:07:33.959Z,4.83
2019-06-07T09:10:12.793Z,4.65
2019-06-07T09:12:36.123Z,4.70
2019-06-07T09:15:20.583Z,5.00
2019-06-07T09:17:35.632Z,5.00
2019-06-07T09:20:09.428Z,4.80
2019-06-07T09:22:35.510Z,4.33
2019-06-07T09:25:12.232Z,4.50
2019-06-07T09:27:34.706Z,4.25
2019-06-07T09:30:11.725Z,3.95
2019-06-07T09:32:34.401Z,4.40
2019-06-07T09:35:11.471Z,4.30
2019-06-07T09:40:20.450Z,4.50
2019-06-07T09:42:35.580Z,4.22
2019-06-07T09:45:08.753Z,4.95
2019-06-07T09:47:34.491Z,4.55
2019-06-07T09:50:08.353Z,4.33
2019-06-07T09:52:56.481Z,4.42
2019-06-07T09:55:11.958Z,5.08
2019-06-07T09:57:33.818Z,4.70
2019-06-07T10:00:33.575Z,4.90
2019-06-07T10:02:32.750Z,4.50
2019-06-07T10:05:04.433Z,4.40
2019-06-07T10:07:32.193Z,3.87
2019-06-07T10:12:31.145Z,4.23
2019-06-07T10:15:00.655Z,4.25
2019-06-07T10:17:29.381Z,4.10
2019-06-07T10:20:00.514Z,3.45
2019-06-07T10:22:28.332Z,4.40
2019-06-07T10:24:56.825Z,4.30
2019-06-07T10:27:25.320Z,4.23
2019-06-07T10:29:53.877Z,4.27
2019-06-07T10:32:22.466Z,4.33
2019-06-07T10:34:51.049Z,4.00
2019-06-07T10:37:20.662Z,4.60
2019-06-07T10:39:49.479Z,4.10
2019-06-07T10:42:18.167Z,4.22
2019-06-07T10:44:46.796Z,4.15
2019-06-07T10:47:17.941Z,3.98
2019-06-07T10:49:46.486Z,4.08
2019-06-07T10:52:15.175Z,3.50
2019-06-07T10:54:43.759Z,3.75
2019-06-07T10:57:15.776Z,3.72
2019-06-07T10:59:42.649Z,4.03
2019-06-07T11:02:13.943Z,4.00
2019-06-07T11:04:42.591Z,3.80
2019-06-07T11:07:12.064Z,3.92
2019-06-07T11:09:40.780Z,3.77
2019-06-07T11:12:10.744Z,4.28
2019-06-07T11:14:39.624Z,4.05
2019-06-07T11:17:09.360Z,3.70
2019-06-07T11:19:37.956Z,4.22
2019-06-07T11:22:06.496Z,3.42
2019-06-07T11:24:35.113Z,3.80
2019-06-07T11:27:03.815Z,3.87
2019-06-07T11:29:32.355Z,3.75
2019-06-07T11:32:00.898Z,4.08
2019-06-07T11:34:29.460Z,4.08
2019-06-07T11:36:57.946Z,4.20
2019-06-07T11:39:26.491Z,3.90
2019-06-07T11:41:54.995Z,3.90
2019-06-07T11:44:23.748Z,3.60
2019-06-07T11:46:52.235Z,4.00
2019-06-07T11:49:22.072Z,3.70
2019-06-07T11:51:50.789Z,3.80
2019-06-07T11:54:20.596Z,3.30
2019-06-07T11:56:49.306Z,3.50
2019-06-07T11:59:19.015Z,3.40
2019-06-07T12:01:47.619Z,3.40
2019-06-07T12:04:33.841Z,3.47
2019-06-07T12:06:46.430Z,3.60
2019-06-07T12:09:16.675Z,3.70
2019-06-07T12:11:45.415Z,3.60
2019-06-07T12:14:14.768Z,3.50
2019-06-07T12:16:43.581Z,3.80
2019-06-07T12:19:13.502Z,3.90
2019-06-07T12:21:42.184Z,3.83
2019-06-07T12:24:12.093Z,3.50
2019-06-07T12:26:40.714Z,3.37
2019-06-07T12:29:09.156Z,3.30
2019-06-07T12:31:37.692Z,3.40
2019-06-07T12:34:06.183Z,3.57
2019-06-07T12:36:34.781Z,3.33
2019-06-07T12:39:03.940Z,3.30
2019-06-07T12:41:32.582Z,3.40
2019-06-07T12:44:01.193Z,4.00
2019-06-07T12:46:29.839Z,3.33
2019-06-07T12:48:58.409Z,3.57
2019-06-07T12:51:26.975Z,4.00
2019-06-07T12:53:55.563Z,3.77
2019-06-07T12:56:24.303Z,3.80
2019-06-07T12:58:52.829Z,3.73
2019-06-07T13:01:22.863Z,3.70
2019-06-07T13:03:51.480Z,4.00
2019-06-07T13:06:19.977Z,3.90
2019-06-07T13:08:49.520Z,3.93
2019-06-07T13:11:24.305Z,4.30
2019-06-07T13:13:48.153Z,4.10
2019-06-07T13:16:18.361Z,4.07
2019-06-07T13:18:47.059Z,4.27
2019-06-07T13:21:16.198Z,4.60
2019-06-07T13:23:44.873Z,4.27
2019-06-07T13:26:13.335Z,4.47
2019-06-07T13:28:41.881Z,4.33
2019-06-07T13:31:10.426Z,4.70
2019-06-07T13:33:39.163Z,4.20
2019-06-07T13:36:07.795Z,3.90
2019-06-07T13:38:36.390Z,3.87
2019-06-07T13:41:04.976Z,4.00
2019-06-07T13:43:33.563Z,3.77
2019-06-07T13:46:02.108Z,4.27
2019-06-07T13:48:30.786Z,4.17
2019-06-07T13:50:59.337Z,4.17
2019-06-07T13:53:29.055Z,4.33
2019-06-07T13:55:57.745Z,4.17
2019-06-07T13:58:26.529Z,3.90
2019-06-07T14:00:55.146Z,4.00
2019-06-07T14:03:28.682Z,4.40
2019-06-07T14:05:53.924Z,4.47
2019-06-07T14:08:23.273Z,4.53
2019-06-07T14:10:52.038Z,4.63
2019-06-07T14:13:21.549Z,4.30
2019-06-07T14:15:50.201Z,4.13
2019-06-07T14:18:20.216Z,4.00
2019-06-07T14:20:49.046Z,5.63
2019-06-07T14:23:17.591Z,4.23
2019-06-07T14:25:46.146Z,3.83
2019-06-07T14:28:14.647Z,4.03
2019-06-07T14:30:43.257Z,3.80
2019-06-07T14:33:11.817Z,4.30
2019-06-07T14:35:40.380Z,3.60
2019-06-07T14:38:08.837Z,4.17
2019-06-07T14:40:37.329Z,3.77
2019-06-07T14:43:05.798Z,4.37
2019-06-07T14:45:34.324Z,3.80
2019-06-07T14:48:02.977Z,3.57
2019-06-07T14:50:32.299Z,3.90
2019-06-07T14:53:00.923Z,4.07
2019-06-07T14:55:31.118Z,4.50
2019-06-07T14:57:59.920Z,3.83
2019-06-07T15:00:38.896Z,3.90
2019-06-07T15:03:07.425Z,3.63
2019-06-07T15:05:36.789Z,3.63
2019-06-07T15:08:06.444Z,4.60
2019-06-07T15:10:35.298Z,4.03
2019-06-07T15:13:04.255Z,4.43
2019-06-07T15:15:32.905Z,3.80
2019-06-07T15:18:01.403Z,4.10
2019-06-07T15:20:30.457Z,3.97
2019-06-07T15:22:59.485Z,3.70
2019-06-07T15:25:29.162Z,3.47
2019-06-07T15:27:57.921Z,3.43
2019-06-07T15:30:27.434Z,3.90
2019-06-07T15:32:59.543Z,3.53
2019-06-07T15:35:26.258Z,3.67
2019-06-07T15:37:54.870Z,3.93
2019-06-07T15:40:23.517Z,4.00
2019-06-07T15:42:53.331Z,4.00
2019-06-07T15:45:21.930Z,4.10
2019-06-07T15:47:50.416Z,4.03
2019-06-07T15:50:18.989Z,4.07
2019-06-07T15:52:47.483Z,4.20
2019-06-07T15:55:17.184Z,4.20
2019-06-07T15:57:45.660Z,4.00
2019-06-07T16:00:14.409Z,4.67
2019-06-07T16:02:43.019Z,4.10
2019-06-07T16:05:11.764Z,3.83
2019-06-07T16:07:40.605Z,3.97
2019-06-07T16:10:09.738Z,4.30
2019-06-07T16:12:38.783Z,3.93
2019-06-07T16:15:07.634Z,4.13
2019-06-07T16:17:37.210Z,4.00
2019-06-07T16:20:06.864Z,3.50
2019-06-07T16:22:35.757Z,3.60
2019-06-07T16:25:04.878Z,3.30
2019-06-07T16:27:34.395Z,3.43
2019-06-07T16:30:09.083Z,3.60
2019-06-07T16:32:34.896Z,3.63
2019-06-07T16:35:04.010Z,3.90
2019-06-07T16:37:32.635Z,3.50
2019-06-07T16:40:03.665Z,3.53
2019-06-07T16:42:32.214Z,3.40
2019-06-07T16:45:00.713Z,3.50
2019-06-07T16:47:29.380Z,4.17
2019-06-07T16:49:57.909Z,4.10
2019-06-07T16:52:26.519Z,3.50
2019-06-07T16:54:55.173Z,3.57
2019-06-07T16:57:23.642Z,4.12
2019-06-07T16:59:52.224Z,3.90
2019-06-07T17:02:22.351Z,3.83
2019-06-07T17:04:51.010Z,3.98
2019-06-07T17:07:19.499Z,3.77
2019-06-07T17:09:49.444Z,4.10
2019-06-07T17:12:18.277Z,3.87
2019-06-07T17:14:46.829Z,3.95
2019-06-07T17:17:15.486Z,4.00
2019-06-07T17:19:45.011Z,4.12
2019-06-07T17:22:13.847Z,4.00
2019-06-07T17:24:43.322Z,4.20
2019-06-07T17:27:12.248Z,4.20
2019-06-07T17:29:41.970Z,3.33
2019-06-07T17:32:10.596Z,3.50
2019-06-07T17:34:39.917Z,2.90
2019-06-07T17:37:08.607Z,2.70
2019-06-07T17:39:37.254Z,3.02
2019-06-07T17:42:05.802Z,2.10
2019-06-07T17:44:34.347Z,2.00
2019-06-07T17:47:02.897Z,1.92
2019-06-07T17:49:31.507Z,1.70
2019-06-07T17:52:00.102Z,1.82
2019-06-07T17:54:28.648Z,1.70
2019-06-07T17:56:57.221Z,1.60
2019-06-07T17:59:25.783Z,1.40
2019-06-07T18:02:13.369Z,1.50
2019-06-07T18:04:24.748Z,1.57
2019-06-07T18:06:53.695Z,1.30
2019-06-07T18:09:24.301Z,1.30
2019-06-07T18:11:54.106Z,1.40
2019-06-07T18:14:22.879Z,1.50
2019-06-07T18:16:52.763Z,1.80
2019-06-07T18:19:21.349Z,1.50
2019-06-07T18:21:55.432Z,1.75
2019-06-07T18:24:20.700Z,1.32
2019-06-07T18:26:50.450Z,1.70
2019-06-07T18:29:19.080Z,1.67
2019-06-07T18:31:48.706Z,1.50
2019-06-07T18:34:18.459Z,1.40
2019-06-07T18:36:47.220Z,1.47
2019-06-07T18:39:15.777Z,1.47
2019-06-07T18:41:44.343Z,1.60
2019-06-07T18:44:21.036Z,1.67
2019-06-07T18:46:44.344Z,1.67
2019-06-07T18:49:13.015Z,1.70
2019-06-07T18:51:41.620Z,1.77
2019-06-07T18:54:11.302Z,1.60
2019-06-07T18:56:39.861Z,1.70
2019-06-07T18:59:08.421Z,1.50
2019-06-07T19:01:36.990Z,1.80
2019-06-07T19:04:05.561Z,1.80
2019-06-07T19:06:34.113Z,2.00
2019-06-07T19:09:02.701Z,2.10
2019-06-07T19:11:34.038Z,1.70
2019-06-07T19:14:03.259Z,1.72
2019-06-07T19:16:41.945Z,1.47
2019-06-07T19:19:13.035Z,1.35
2019-06-07T19:21:42.767Z,1.60
2019-06-07T19:24:11.315Z,1.30
2019-06-07T19:26:39.957Z,1.62
2019-06-07T19:29:08.545Z,1.70
2019-06-07T19:31:37.121Z,1.70
2019-06-07T19:34:06.150Z,1.55
2019-06-07T19:36:48.030Z,1.50
2019-06-07T19:39:06.126Z,1.70
2019-06-07T19:41:34.681Z,1.67
2019-06-07T19:44:03.143Z,1.72
2019-06-07T19:46:31.713Z,1.62
2019-06-07T19:49:00.782Z,1.80
2019-06-07T19:51:29.486Z,1.82
2019-06-07T19:53:59.105Z,1.90
2019-06-07T19:56:27.792Z,2.58
2019-06-07T19:58:57.532Z,2.42
2019-06-07T20:01:26.266Z,3.15
2019-06-07T20:03:55.925Z,2.60
2019-06-07T20:06:24.686Z,2.37
2019-06-07T20:08:54.295Z,2.30
2019-06-07T20:11:23.035Z,2.20
2019-06-07T20:13:51.632Z,2.30
2019-06-07T20:16:20.238Z,1.90
2019-06-07T20:18:48.831Z,2.00
2019-06-07T20:21:17.419Z,1.62
2019-06-07T20:23:49.506Z,1.50
2019-06-07T20:26:18.027Z,1.40
2019-06-07T20:28:48.231Z,1.62
2019-06-07T20:31:16.727Z,1.77
2019-06-07T20:33:45.234Z,1.60
2019-06-07T20:36:13.821Z,1.70
2019-06-07T20:38:42.378Z,2.00
2019-06-07T20:41:12.109Z,2.00
2019-06-07T20:43:40.738Z,1.70
2019-06-07T20:46:09.316Z,1.70
2019-06-07T20:48:37.892Z,1.72
2019-06-07T20:51:06.589Z,1.70
2019-06-07T20:53:35.367Z,1.50
2019-06-07T20:56:04.711Z,1.77
2019-06-07T20:58:34.399Z,1.80
2019-06-07T21:01:02.967Z,1.70
2019-06-07T21:03:31.540Z,1.80
2019-06-07T21:06:01.428Z,1.60
2019-06-07T21:08:30.187Z,1.80
2019-06-07T21:11:00.006Z,1.90
2019-06-07T21:13:29.735Z,1.90
2019-06-07T21:15:58.193Z,2.15
2019-06-07T21:18:26.854Z,1.70
2019-06-07T21:20:55.432Z,1.52
2019-06-07T21:23:24.012Z,1.67
2019-06-07T21:25:52.607Z,1.87
2019-06-07T21:28:21.103Z,2.10
2019-06-07T21:30:49.673Z,2.23
2019-06-07T21:33:18.251Z,3.00
2019-06-07T21:35:46.843Z,3.70
2019-06-07T21:38:15.507Z,3.10
2019-06-07T21:40:44.113Z,3.00
2019-06-07T21:43:13.189Z,2.90
2019-06-07T21:45:41.874Z,1.92
2019-06-07T21:48:11.595Z,2.05
2019-06-07T21:50:40.402Z,1.70
2019-06-07T21:53:09.096Z,1.80
2019-06-07T21:55:37.648Z,1.82
2019-06-07T21:58:07.083Z,1.50
2019-06-07T22:00:54.162Z,1.50
2019-06-07T22:03:22.824Z,1.87
2019-06-07T22:05:51.541Z,1.60
2019-06-07T22:08:20.137Z,1.80
2019-06-07T22:10:48.877Z,1.70
2019-06-07T22:13:17.552Z,1.80
2019-06-07T22:15:46.149Z,1.80
2019-06-07T22:18:14.693Z,1.70
2019-06-07T22:20:43.329Z,1.70
2019-06-07T22:23:12.757Z,1.60
2019-06-07T22:25:41.409Z,1.55
2019-06-07T22:28:10.234Z,1.50
2019-06-07T22:30:38.914Z,1.50
2019-06-07T22:33:08.582Z,1.50
2019-06-07T22:35:37.385Z,1.60
2019-06-07T22:38:06.105Z,1.87
2019-06-07T22:40:34.642Z,1.67
2019-06-07T22:43:03.314Z,1.50
2019-06-07T22:45:32.919Z,1.77
2019-06-07T22:48:01.486Z,1.80
2019-06-07T22:50:29.997Z,1.77
2019-06-07T22:52:58.486Z,1.95
2019-06-07T22:55:27.171Z,1.62
2019-06-07T22:57:59.174Z,1.40
2019-06-07T23:00:29.597Z,1.60
2019-06-07T23:02:58.146Z,1.90
2019-06-07T23:05:26.689Z,1.55
2019-06-07T23:07:55.178Z,1.80
2019-06-07T23:10:23.679Z,1.60
2019-06-07T23:12:52.323Z,1.80
2019-06-07T23:15:21.196Z,1.77
2019-06-07T23:17:49.740Z,1.70
2019-06-07T23:20:18.319Z,1.60
2019-06-07T23:22:46.764Z,2.10
2019-06-07T23:25:19.923Z,1.60
2019-06-07T23:27:45.505Z,1.65
2019-06-07T23:30:14.599Z,1.40
2019-06-07T23:32:43.226Z,1.60
2019-06-07T23:35:12.783Z,1.80
2019-06-07T23:37:41.570Z,1.50
2019-06-07T23:40:11.182Z,1.72
2019-06-07T23:42:39.926Z,1.47
2019-06-07T23:45:08.542Z,1.40
2019-06-07T23:47:37.155Z,1.60
2019-06-07T23:50:05.622Z,1.42
2019-06-07T23:52:34.226Z,1.57
2019-06-07T23:55:02.838Z,1.42
2019-06-07T23:57:31.513Z,1.60
